createdAt,value
2019-02-14T00:00:42.759Z,71.60
2019-02-14T00:03:12.120Z,71.74
2019-02-14T00:05:41.481Z,71.93
2019-02-14T00:08:10.851Z,72.26
2019-02-14T00:10:40.237Z,72.35
2019-02-14T00:13:09.574Z,72.28
2019-02-14T00:15:38.943Z,72.52
2019-02-14T00:18:08.295Z,72.62
2019-02-14T00:20:37.670Z,72.77
2019-02-14T00:23:06.996Z,73.27
2019-02-14T00:25:36.375Z,73.18
2019-02-14T00:28:05.755Z,73.11
2019-02-14T00:30:35.108Z,73.38
2019-02-14T00:33:04.465Z,73.28
2019-02-14T00:35:33.835Z,73.24
2019-02-14T00:38:03.209Z,73.19
2019-02-14T00:40:32.568Z,73.29
2019-02-14T00:43:01.906Z,73.78
2019-02-14T00:45:31.295Z,73.97
2019-02-14T00:48:00.684Z,74.05
2019-02-14T00:50:30.030Z,74.13
2019-02-14T00:52:59.367Z,74.21
2019-02-14T00:55:28.718Z,74.25
2019-02-14T00:57:58.055Z,74.47
2019-02-14T01:00:27.418Z,74.58
2019-02-14T01:02:56.763Z,75.14
2019-02-14T01:05:33.402Z,75.31
2019-02-14T01:07:57.268Z,75.50
2019-02-14T01:10:26.598Z,75.66
2019-02-14T01:12:55.975Z,75.90
2019-02-14T01:15:26.402Z,76.24
2019-02-14T01:17:55.768Z,76.85
2019-02-14T01:20:25.118Z,77.45
2019-02-14T01:22:54.476Z,77.83
2019-02-14T01:25:23.843Z,78.17
2019-02-14T01:27:53.174Z,78.54
2019-02-14T01:30:22.594Z,78.63
2019-02-14T01:32:51.969Z,78.86
2019-02-14T01:35:21.352Z,79.10
2019-02-14T01:37:50.698Z,78.96
2019-02-14T01:40:20.100Z,79.04
2019-02-14T01:42:49.464Z,79.18
2019-02-14T01:45:18.817Z,79.23
2019-02-14T01:47:48.197Z,79.41
2019-02-14T01:50:17.567Z,79.44
2019-02-14T01:52:46.956Z,80.05
2019-02-14T01:55:16.304Z,80.48
2019-02-14T01:57:45.699Z,81.01
2019-02-14T02:00:16.050Z,81.53
2019-02-14T02:02:45.402Z,81.84
2019-02-14T02:05:14.821Z,82.17
2019-02-14T02:07:44.149Z,82.69
2019-02-14T02:10:13.799Z,83.16
2019-02-14T02:12:43.149Z,83.58
2019-02-14T02:15:14.193Z,83.96
2019-02-14T02:17:43.537Z,84.18
2019-02-14T02:20:13.059Z,84.13
2019-02-14T02:22:42.433Z,84.20
2019-02-14T02:25:12.366Z,84.24
2019-02-14T02:27:41.736Z,84.29
2019-02-14T02:30:13.070Z,84.29
2019-02-14T02:32:42.442Z,84.24
2019-02-14T02:35:11.780Z,84.19
2019-02-14T02:37:41.145Z,84.16
2019-02-14T02:40:10.674Z,84.12
2019-02-14T02:42:39.941Z,83.96
2019-02-14T02:45:10.994Z,83.92
2019-02-14T02:47:40.318Z,84.08
2019-02-14T02:50:11.517Z,84.20
2019-02-14T02:52:40.929Z,84.26
2019-02-14T02:55:11.576Z,84.42
2019-02-14T02:57:40.957Z,84.36
2019-02-14T03:00:13.539Z,84.62
2019-02-14T03:02:42.874Z,84.71
2019-02-14T03:05:13.489Z,84.94
2019-02-14T03:07:42.843Z,85.11
2019-02-14T03:10:12.795Z,85.50
2019-02-14T03:12:42.205Z,85.98
2019-02-14T03:15:12.652Z,86.21
2019-02-14T03:17:42.050Z,86.23
2019-02-14T03:20:11.893Z,86.03
2019-02-14T03:22:41.262Z,85.79
2019-02-14T03:25:13.425Z,85.68
2019-02-14T03:27:42.830Z,85.51
2019-02-14T03:30:12.983Z,85.13
2019-02-14T03:32:42.353Z,84.94
2019-02-14T03:35:11.737Z,84.75
2019-02-14T03:37:41.108Z,84.48
2019-02-14T03:40:11.293Z,84.32
2019-02-14T03:42:40.726Z,84.24
2019-02-14T03:45:12.895Z,83.97
2019-02-14T03:47:42.228Z,84.13
2019-02-14T03:50:11.746Z,83.94
2019-02-14T03:52:41.228Z,83.87
2019-02-14T03:55:10.631Z,83.85
2019-02-14T03:57:40.018Z,83.76
2019-02-14T04:00:12.134Z,83.76
2019-02-14T04:02:41.610Z,83.52
2019-02-14T04:05:11.157Z,83.58
2019-02-14T04:07:40.565Z,83.33
2019-02-14T04:10:11.401Z,83.30
2019-02-14T04:12:40.791Z,83.05
2019-02-14T04:15:12.345Z,82.88
2019-02-14T04:17:41.735Z,82.85
2019-02-14T04:20:11.399Z,82.87
2019-02-14T04:22:40.801Z,82.73
2019-02-14T04:25:10.460Z,82.56
2019-02-14T04:27:39.996Z,82.58
2019-02-14T04:30:10.637Z,82.52
2019-02-14T04:32:40.041Z,82.57
2019-02-14T04:35:09.714Z,82.45
2019-02-14T04:37:39.094Z,82.37
2019-02-14T04:40:10.414Z,82.13
2019-02-14T04:42:39.783Z,82.04
2019-02-14T04:45:09.406Z,81.79
2019-02-14T04:47:38.754Z,81.44
2019-02-14T04:50:08.543Z,81.20
2019-02-14T04:52:37.888Z,81.02
2019-02-14T04:55:07.622Z,81.08
2019-02-14T04:57:37.019Z,81.13
2019-02-14T05:00:07.613Z,81.05
2019-02-14T05:02:37.076Z,80.84
2019-02-14T05:05:06.930Z,80.70
2019-02-14T05:07:36.304Z,80.36
2019-02-14T05:10:06.258Z,79.97
2019-02-14T05:12:35.602Z,79.91
2019-02-14T05:15:05.190Z,79.84
2019-02-14T05:17:34.615Z,79.68
2019-02-14T05:20:03.977Z,79.33
2019-02-14T05:22:33.346Z,79.17
2019-02-14T05:25:02.769Z,79.24
2019-02-14T05:27:32.128Z,78.83
2019-02-14T05:30:01.531Z,78.84
2019-02-14T05:32:30.935Z,78.68
2019-02-14T05:35:00.264Z,78.51
2019-02-14T05:37:29.667Z,78.49
2019-02-14T05:39:59.022Z,78.31
2019-02-14T05:42:28.417Z,78.12
2019-02-14T05:44:57.786Z,78.09
2019-02-14T05:47:27.188Z,77.62
2019-02-14T05:49:56.587Z,77.32
2019-02-14T05:52:26.010Z,77.03
2019-02-14T05:54:55.383Z,77.26
2019-02-14T05:57:24.752Z,76.78
2019-02-14T05:59:54.111Z,76.78
2019-02-14T06:02:23.473Z,76.71
2019-02-14T06:04:52.830Z,76.79
2019-02-14T06:07:22.217Z,76.70
2019-02-14T06:09:51.580Z,76.61
2019-02-14T06:12:20.949Z,76.47
2019-02-14T06:14:50.817Z,76.48
2019-02-14T06:17:20.194Z,76.43
2019-02-14T06:19:49.570Z,76.39
2019-02-14T06:22:18.955Z,76.29
2019-02-14T06:24:48.326Z,76.23
2019-02-14T06:27:17.683Z,76.30
2019-02-14T06:29:47.103Z,76.44
2019-02-14T06:32:17.776Z,76.29
2019-02-14T06:34:47.197Z,76.48
2019-02-14T06:37:16.570Z,76.46
2019-02-14T06:39:45.906Z,76.39
2019-02-14T06:42:15.292Z,76.48
2019-02-14T06:44:44.711Z,76.26
2019-02-14T06:47:14.222Z,76.23
2019-02-14T06:49:43.621Z,75.70
2019-02-14T06:52:12.974Z,75.43
2019-02-14T06:54:44.570Z,75.19
2019-02-14T06:57:13.925Z,75.24
2019-02-14T06:59:43.288Z,75.02
2019-02-14T07:02:12.709Z,74.75
2019-02-14T07:04:42.087Z,74.67
2019-02-14T07:07:18.399Z,74.42
2019-02-14T07:09:42.573Z,74.88
2019-02-14T07:12:12.088Z,74.87
2019-02-14T07:14:41.473Z,75.26
2019-02-14T07:17:10.910Z,75.63
2019-02-14T07:19:40.340Z,76.17
2019-02-14T07:22:09.678Z,76.81
2019-02-14T07:24:39.048Z,77.03
2019-02-14T07:27:08.418Z,77.09
2019-02-14T07:29:37.818Z,77.12
2019-02-14T07:32:07.189Z,76.99
2019-02-14T07:34:36.612Z,77.19
2019-02-14T07:37:06.083Z,77.46
2019-02-14T07:39:35.448Z,77.02
2019-02-14T07:42:04.898Z,76.36
2019-02-14T07:44:34.266Z,76.20
2019-02-14T07:47:03.711Z,75.97
2019-02-14T07:49:33.157Z,76.15
2019-02-14T07:52:02.488Z,75.74
2019-02-14T07:54:31.848Z,75.38
2019-02-14T07:57:01.197Z,75.21
2019-02-14T07:59:30.602Z,75.03
2019-02-14T08:01:59.977Z,74.54
2019-02-14T08:04:29.335Z,74.78
2019-02-14T08:06:58.685Z,74.37
2019-02-14T08:09:28.022Z,73.96
2019-02-14T08:11:57.386Z,73.70
2019-02-14T08:14:26.756Z,73.46
2019-02-14T08:16:56.201Z,72.76
2019-02-14T08:19:25.619Z,72.38
2019-02-14T08:21:54.984Z,72.11
2019-02-14T08:24:24.510Z,71.71
2019-02-14T08:26:53.975Z,71.32
2019-02-14T08:29:23.312Z,71.22
2019-02-14T08:31:52.658Z,70.95
2019-02-14T08:34:22.037Z,71.26
2019-02-14T08:36:51.483Z,71.30
2019-02-14T08:39:20.806Z,70.89
2019-02-14T08:41:50.141Z,70.59
2019-02-14T08:44:19.542Z,70.28
2019-02-14T08:46:48.901Z,70.54
2019-02-14T08:49:18.292Z,70.31
2019-02-14T08:51:47.767Z,68.99
2019-02-14T08:54:17.124Z,69.02
2019-02-14T08:56:46.574Z,69.46
2019-02-14T08:59:17.416Z,69.44
2019-02-14T09:01:46.798Z,69.46
2019-02-14T09:04:16.238Z,68.64
2019-02-14T09:06:45.623Z,68.31
2019-02-14T09:09:14.957Z,68.99
2019-02-14T09:11:44.346Z,68.38
2019-02-14T09:14:13.713Z,68.85
2019-02-14T09:16:43.084Z,68.81
2019-02-14T09:19:12.411Z,68.93
2019-02-14T09:21:41.765Z,69.02
2019-02-14T09:24:11.127Z,68.76
2019-02-14T09:26:40.518Z,68.40
2019-02-14T09:29:12.064Z,68.69
2019-02-14T09:31:40.986Z,68.52
2019-02-14T09:34:10.378Z,68.06
2019-02-14T09:36:39.753Z,66.74
2019-02-14T09:39:09.193Z,67.49
2019-02-14T09:41:38.559Z,67.68
2019-02-14T09:44:07.944Z,66.59
2019-02-14T09:46:37.326Z,66.86
2019-02-14T09:49:06.735Z,65.88
2019-02-14T09:51:36.114Z,63.96
2019-02-14T09:54:05.477Z,63.05
2019-02-14T09:56:34.830Z,61.66
2019-02-14T09:59:04.215Z,60.10
2019-02-14T10:01:33.551Z,60.18
2019-02-14T10:04:02.914Z,59.79
2019-02-14T10:06:36.782Z,59.91
2019-02-14T10:09:04.973Z,58.16
2019-02-14T10:11:34.370Z,57.73
2019-02-14T10:14:03.831Z,56.83
2019-02-14T10:16:33.222Z,56.12
2019-02-14T10:19:02.609Z,55.58
2019-02-14T10:21:31.997Z,55.96
2019-02-14T10:24:01.432Z,55.57
2019-02-14T10:26:30.834Z,55.37
2019-02-14T10:29:00.202Z,55.75
2019-02-14T10:31:29.772Z,55.25
2019-02-14T10:33:59.231Z,54.41
2019-02-14T10:36:28.618Z,53.64
2019-02-14T10:38:57.979Z,52.75
2019-02-14T10:41:29.298Z,53.25
2019-02-14T10:43:58.719Z,53.49
2019-02-14T10:46:28.087Z,52.97
2019-02-14T10:48:57.485Z,50.74
2019-02-14T10:51:26.854Z,53.09
2019-02-14T10:53:56.211Z,52.88
2019-02-14T10:56:25.642Z,51.38
2019-02-14T10:58:55.019Z,51.55
2019-02-14T11:01:24.351Z,51.28
2019-02-14T11:03:53.685Z,52.39
2019-02-14T11:06:23.049Z,50.45
2019-02-14T11:08:52.448Z,51.70
2019-02-14T11:11:21.820Z,49.46
2019-02-14T11:13:51.175Z,49.30
2019-02-14T11:16:20.565Z,49.69
2019-02-14T11:18:49.933Z,50.77
2019-02-14T11:21:19.312Z,54.03
2019-02-14T11:23:48.696Z,54.92
2019-02-14T11:26:18.059Z,55.07
2019-02-14T11:28:47.387Z,56.36
2019-02-14T11:31:16.764Z,55.46
2019-02-14T11:33:46.078Z,53.48
2019-02-14T11:36:15.481Z,55.24
2019-02-14T11:38:44.831Z,56.18
2019-02-14T11:41:14.180Z,55.97
2019-02-14T11:43:43.530Z,55.89
2019-02-14T11:46:12.881Z,54.86
2019-02-14T11:48:42.264Z,55.14
2019-02-14T11:51:11.617Z,54.05
2019-02-14T11:53:40.990Z,55.01
2019-02-14T11:56:10.869Z,54.21
2019-02-14T11:58:40.208Z,53.99
2019-02-14T12:01:09.598Z,53.69
2019-02-14T12:03:39.046Z,54.04
2019-02-14T12:06:08.442Z,55.19
2019-02-14T12:08:37.811Z,55.12
2019-02-14T12:11:07.176Z,55.82
2019-02-14T12:13:36.558Z,57.43
2019-02-14T12:16:05.973Z,57.73
2019-02-14T12:18:35.343Z,58.19
2019-02-14T12:21:04.691Z,57.07
2019-02-14T12:23:34.108Z,57.35
2019-02-14T12:26:05.605Z,58.37
2019-02-14T12:28:34.527Z,57.41
2019-02-14T12:31:03.938Z,56.51
2019-02-14T12:33:33.307Z,57.68
2019-02-14T12:36:02.702Z,58.39
2019-02-14T12:38:32.103Z,58.86
2019-02-14T12:41:01.518Z,59.28
2019-02-14T12:43:30.863Z,61.68
2019-02-14T12:46:00.226Z,61.38
2019-02-14T12:48:29.804Z,60.38
2019-02-14T12:50:59.177Z,59.50
2019-02-14T12:53:28.530Z,59.53
2019-02-14T12:55:57.876Z,60.08
2019-02-14T12:58:27.263Z,61.58
2019-02-14T13:00:56.625Z,63.37
2019-02-14T13:03:26.018Z,66.26
2019-02-14T13:05:55.400Z,67.90
2019-02-14T13:08:24.742Z,68.94
2019-02-14T13:10:54.120Z,69.82
2019-02-14T13:13:23.534Z,70.89
2019-02-14T13:15:55.211Z,71.47
2019-02-14T13:18:24.626Z,71.59
2019-02-14T13:20:54.027Z,71.73
2019-02-14T13:23:23.443Z,72.19
2019-02-14T13:25:52.917Z,72.30
2019-02-14T13:28:22.327Z,72.21
2019-02-14T13:30:51.655Z,72.18
2019-02-14T13:33:21.074Z,71.67
2019-02-14T13:35:50.430Z,71.79
2019-02-14T13:38:19.882Z,71.74
2019-02-14T13:40:49.329Z,72.15
2019-02-14T13:43:18.828Z,72.80
2019-02-14T13:45:48.252Z,73.48
2019-02-14T13:48:17.796Z,73.86
2019-02-14T13:50:47.214Z,74.53
2019-02-14T13:53:16.643Z,74.64
2019-02-14T13:55:46.048Z,74.75
2019-02-14T13:58:15.524Z,74.98
2019-02-14T14:00:44.955Z,74.77
2019-02-14T14:03:14.345Z,75.51
2019-02-14T14:05:43.766Z,75.59
2019-02-14T14:08:13.241Z,76.07
2019-02-14T14:10:42.708Z,75.85
2019-02-14T14:13:12.085Z,75.89
2019-02-14T14:15:41.523Z,76.10
2019-02-14T14:18:10.880Z,76.48
2019-02-14T14:20:40.278Z,76.57
2019-02-14T14:23:09.652Z,76.99
2019-02-14T14:25:39.046Z,77.25
2019-02-14T14:28:08.500Z,77.21
2019-02-14T14:30:37.912Z,77.32
2019-02-14T14:33:07.358Z,77.20
2019-02-14T14:35:36.786Z,76.93
2019-02-14T14:38:06.270Z,77.09
2019-02-14T14:40:35.716Z,77.27
2019-02-14T14:43:32.977Z,77.33
2019-02-14T14:46:10.361Z,77.32
2019-02-14T14:48:41.647Z,77.47
2019-02-14T14:51:11.121Z,77.59
2019-02-14T14:53:41.117Z,77.20
2019-02-14T14:56:10.658Z,77.42
2019-02-14T14:58:40.112Z,77.55
2019-02-14T15:01:09.497Z,77.87
2019-02-14T15:03:40.674Z,77.85
2019-02-14T15:06:10.237Z,77.90
2019-02-14T15:08:39.723Z,78.03
2019-02-14T15:11:09.146Z,78.28
2019-02-14T15:13:38.576Z,77.90
2019-02-14T15:16:07.993Z,77.85
2019-02-14T15:18:37.403Z,77.95
2019-02-14T15:21:06.878Z,77.91
2019-02-14T15:23:36.261Z,78.01
2019-02-14T15:26:05.635Z,78.25
2019-02-14T15:28:35.007Z,78.28
2019-02-14T15:31:04.356Z,78.17
2019-02-14T15:33:33.724Z,78.25
2019-02-14T15:36:03.295Z,78.36
2019-02-14T15:38:34.525Z,78.78
2019-02-14T15:41:03.902Z,78.77
2019-02-14T15:43:33.317Z,78.76
2019-02-14T15:46:02.685Z,78.39
2019-02-14T15:48:32.117Z,78.58
2019-02-14T15:51:01.493Z,78.67
2019-02-14T15:53:30.899Z,78.89
2019-02-14T15:56:00.293Z,79.04
2019-02-14T15:58:30.710Z,79.13
2019-02-14T16:01:01.303Z,79.20
2019-02-14T16:03:30.740Z,78.94
2019-02-14T16:06:01.747Z,79.35
2019-02-14T16:08:31.446Z,79.71
2019-02-14T16:11:00.874Z,79.77
2019-02-14T16:13:31.714Z,79.61
2019-02-14T16:16:01.337Z,79.67
2019-02-14T16:18:30.739Z,79.93
2019-02-14T16:21:00.131Z,80.20
2019-02-14T16:23:34.181Z,80.50
2019-02-14T16:26:03.819Z,80.48
2019-02-14T16:28:33.227Z,80.67
2019-02-14T16:31:02.719Z,80.92
2019-02-14T16:33:32.141Z,80.91
2019-02-14T16:36:01.801Z,81.06
2019-02-14T16:38:33.043Z,81.31
2019-02-14T16:41:02.605Z,81.61
2019-02-14T16:43:32.016Z,81.74
2019-02-14T16:46:01.535Z,81.31
2019-02-14T16:48:30.995Z,81.35
2019-02-14T16:51:00.493Z,81.61
2019-02-14T16:53:29.939Z,81.59
2019-02-14T16:56:02.123Z,81.43
2019-02-14T16:58:30.555Z,82.15
2019-02-14T17:00:59.950Z,82.78
2019-02-14T17:03:29.327Z,83.12
2019-02-14T17:05:58.769Z,83.23
2019-02-14T17:08:28.164Z,83.74
2019-02-14T17:10:57.615Z,84.06
2019-02-14T17:13:27.091Z,84.04
2019-02-14T17:15:56.505Z,84.18
2019-02-14T17:18:25.940Z,84.08
2019-02-14T17:20:55.474Z,84.44
2019-02-14T17:23:24.924Z,84.95
2019-02-14T17:25:54.406Z,85.15
2019-02-14T17:28:23.926Z,85.71
2019-02-14T17:30:53.723Z,85.72
2019-02-14T17:33:23.379Z,85.93
2019-02-14T17:35:53.163Z,85.82
2019-02-14T17:38:22.622Z,85.71
2019-02-14T17:40:52.170Z,85.63
2019-02-14T17:43:21.636Z,85.29
2019-02-14T17:45:51.037Z,85.40
2019-02-14T17:48:20.552Z,85.42
2019-02-14T17:50:53.135Z,85.49
2019-02-14T17:53:22.523Z,85.66
2019-02-14T17:55:52.524Z,85.56
2019-02-14T17:58:22.033Z,85.29
2019-02-14T18:00:55.926Z,85.27
2019-02-14T18:03:22.948Z,85.41
2019-02-14T18:05:52.466Z,85.48
2019-02-14T18:08:21.849Z,85.64
2019-02-14T18:10:54.897Z,85.70
2019-02-14T18:13:22.431Z,85.75
2019-02-14T18:15:56.959Z,86.02
2019-02-14T18:18:26.447Z,86.10
2019-02-14T18:20:55.887Z,86.32
2019-02-14T18:23:25.995Z,86.14
2019-02-14T18:25:55.395Z,86.08
2019-02-14T18:28:25.022Z,85.54
2019-02-14T18:30:54.458Z,85.44
2019-02-14T18:33:23.936Z,85.25
2019-02-14T18:35:53.400Z,85.61
2019-02-14T18:38:22.872Z,85.82
2019-02-14T18:40:52.312Z,85.86
2019-02-14T18:43:21.747Z,85.92
2019-02-14T18:45:51.155Z,85.81
2019-02-14T18:48:20.537Z,85.59
2019-02-14T18:50:50.029Z,85.35
2019-02-14T18:53:19.489Z,85.54
2019-02-14T18:55:48.957Z,85.54
2019-02-14T18:58:26.015Z,85.59
2019-02-14T19:00:49.711Z,85.47
2019-02-14T19:03:19.150Z,85.35
2019-02-14T19:05:48.863Z,85.44
2019-02-14T19:08:18.317Z,85.58
2019-02-14T19:10:47.741Z,85.64
2019-02-14T19:13:19.131Z,85.50
2019-02-14T19:15:48.541Z,85.71
2019-02-14T19:18:18.051Z,85.65
2019-02-14T19:20:47.532Z,85.61
2019-02-14T19:23:24.182Z,85.44
2019-02-14T19:25:48.325Z,85.39
2019-02-14T19:28:17.768Z,85.35
2019-02-14T19:30:47.200Z,85.37
2019-02-14T19:33:17.545Z,85.31
2019-02-14T19:35:46.938Z,85.36
2019-02-14T19:38:16.407Z,85.33
2019-02-14T19:40:46.131Z,85.27
2019-02-14T19:43:15.553Z,85.09
2019-02-14T19:45:45.174Z,85.13
2019-02-14T19:48:14.856Z,84.99
2019-02-14T19:50:44.463Z,85.03
2019-02-14T19:53:14.004Z,85.22
2019-02-14T19:55:43.367Z,85.34
2019-02-14T19:58:12.788Z,85.20
2019-02-14T20:00:42.353Z,85.35
2019-02-14T20:03:11.731Z,85.13
2019-02-14T20:05:41.201Z,85.13
2019-02-14T20:08:10.668Z,85.10
2019-02-14T20:10:40.026Z,85.11
2019-02-14T20:13:09.569Z,85.22
2019-02-14T20:15:39.049Z,85.25
2019-02-14T20:18:08.401Z,85.17
2019-02-14T20:20:38.251Z,85.09
2019-02-14T20:23:07.758Z,84.90
2019-02-14T20:25:37.168Z,84.73
2019-02-14T20:28:06.642Z,84.80
2019-02-14T20:30:36.165Z,84.86
2019-02-14T20:33:05.705Z,85.00
2019-02-14T20:35:35.254Z,85.10
2019-02-14T20:38:08.369Z,84.92
2019-02-14T20:40:37.894Z,84.87
2019-02-14T20:43:11.105Z,84.89
2019-02-14T20:45:40.524Z,84.69
2019-02-14T20:48:10.360Z,84.83
2019-02-14T20:50:40.193Z,84.90
2019-02-14T20:53:09.570Z,84.89
2019-02-14T20:55:39.087Z,84.66
2019-02-14T20:58:08.516Z,84.64
2019-02-14T21:00:38.499Z,84.44
2019-02-14T21:03:08.098Z,84.25
2019-02-14T21:05:37.493Z,84.47
2019-02-14T21:08:06.869Z,84.56
2019-02-14T21:10:36.270Z,84.67
2019-02-14T21:13:05.707Z,84.71
2019-02-14T21:15:35.162Z,84.67
2019-02-14T21:18:04.561Z,84.81
2019-02-14T21:20:33.951Z,84.62
2019-02-14T21:23:03.384Z,84.58
2019-02-14T21:25:32.768Z,84.54
2019-02-14T21:28:02.138Z,84.23
2019-02-14T21:30:35.654Z,84.31
2019-02-14T21:33:02.741Z,84.37
2019-02-14T21:35:32.111Z,84.10
2019-02-14T21:38:01.483Z,84.15
2019-02-14T21:40:30.909Z,84.06
2019-02-14T21:43:00.327Z,84.21
2019-02-14T21:45:35.258Z,83.85
2019-02-14T21:48:04.946Z,83.96
2019-02-14T21:50:34.417Z,83.99
2019-02-14T21:53:05.714Z,83.84
2019-02-14T21:55:35.152Z,83.76
2019-02-14T21:58:05.599Z,83.83
2019-02-14T22:00:35.528Z,83.93
2019-02-14T22:03:05.710Z,83.69
2019-02-14T22:05:35.286Z,83.43
2019-02-14T22:08:04.750Z,83.27
2019-02-14T22:10:34.189Z,83.25
2019-02-14T22:13:11.403Z,83.48
2019-02-14T22:15:40.813Z,83.38
2019-02-14T22:18:10.173Z,83.62
2019-02-14T22:20:39.533Z,83.50
2019-02-14T22:23:08.940Z,83.51
2019-02-14T22:25:38.305Z,83.59
2019-02-14T22:28:07.895Z,83.89
2019-02-14T22:30:37.326Z,84.13
2019-02-14T22:33:06.773Z,84.58
2019-02-14T22:35:35.996Z,84.52
2019-02-14T22:38:05.444Z,84.69
2019-02-14T22:40:34.884Z,84.87
2019-02-14T22:43:04.325Z,85.16
2019-02-14T22:45:33.918Z,85.25
2019-02-14T22:48:03.371Z,85.04
2019-02-14T22:50:33.945Z,85.19
2019-02-14T22:53:03.380Z,85.01
2019-02-14T22:55:32.750Z,85.12
2019-02-14T22:58:02.166Z,84.83
2019-02-14T23:00:37.048Z,84.46
2019-02-14T23:03:06.931Z,84.44
2019-02-14T23:05:36.416Z,84.68
2019-02-14T23:08:05.861Z,84.81
2019-02-14T23:10:35.220Z,84.59
2019-02-14T23:13:04.629Z,84.21
2019-02-14T23:15:34.064Z,84.13
2019-02-14T23:18:03.820Z,83.90
2019-02-14T23:20:33.236Z,83.62
2019-02-14T23:23:02.820Z,83.59
2019-02-14T23:25:32.210Z,83.54
2019-02-14T23:28:03.010Z,83.27
2019-02-14T23:30:32.392Z,83.39
2019-02-14T23:33:02.435Z,82.84
2019-02-14T23:35:31.845Z,83.01
2019-02-14T23:38:01.244Z,82.48
2019-02-14T23:40:30.713Z,82.62
2019-02-14T23:43:04.708Z,82.22
2019-02-14T23:45:31.196Z,81.82
2019-02-14T23:48:00.607Z,81.87
2019-02-14T23:50:29.978Z,81.87
2019-02-14T23:52:59.374Z,81.80
2019-02-14T23:55:28.754Z,81.95
2019-02-14T23:57:58.107Z,81.85
